Time;durP1;ratioP1;P1;durP2;ratioP2;P2;SDS_P1;SDS_P2;PMS_P1;PMS_P2;Temp;Humidity;BMP_temperature;BMP_pressure;BME280_temperature;BME280_humidity;BME280_pressure;Samples;Min_cycle;Max_cycle;Signal;HPM_P1;HPM_P2
2023/08/18 00:03:51;;;;;;;;;;;;;;;19.19;100.00;95899.31;10505619;28;2218;-76
2023/08/18 00:09:01;;;;;;;;;;;;;;;19.33;100.00;95886.25;10510348;28;1984;-75
2023/08/18 00:14:09;;;;;;;;;;;;;;;19.51;100.00;95869.84;10493925;28;1996;-76
2023/08/18 00:19:17;;;;;;;;;;;;;;;19.54;100.00;95858.28;10512053;28;1971;-75
2023/08/18 00:24:25;;;;;;;;;;;;;;;19.49;100.00;95847.56;10513676;28;2956;-76
2023/08/18 00:29:37;;;;;;;;;;;;;;;19.30;100.00;95845.25;10516300;28;2084;-76
2023/08/18 00:34:42;;;;;;;;;;;;;;;19.19;100.00;95844.81;10497076;28;2005;-76
2023/08/18 00:39:54;;;;;;;;;;;;;;;19.12;100.00;95844.50;10518623;28;2037;-76
2023/08/18 00:45:03;;;;;;;;;;;;;;;19.05;100.00;95839.56;10516666;28;4525;-76
2023/08/18 00:50:11;;;;;;;;;;;;;;;18.82;100.00;95833.53;10523868;28;1936;-74
2023/08/18 00:55:22;;;;;;;;;;;;;;;18.68;100.00;95835.66;10500619;28;2047;-75
2023/08/18 01:00:28;;;;;;;;;;;;;;;18.79;100.00;95827.97;10517596;28;1945;-76
2023/08/18 01:05:34;;;;;;;;;;;;;;;18.75;100.00;95822.34;10503380;28;2145;-75
2023/08/18 01:10:41;;;;;;;;;;;;;;;18.74;100.00;95812.59;10521139;28;1962;-75
2023/08/18 01:15:46;;;;;;;;;;;;;;;18.72;100.00;95809.41;10518104;28;2015;-75
2023/08/18 01:21:06;;;;;;;;;;;;;;;18.80;100.00;95799.59;10503970;28;2294;-76
2023/08/18 01:26:10;;;;;;;;;;;;;;;18.63;100.00;95794.97;10503412;28;2006;-75
2023/08/18 01:31:15;;;;;;;;;;;;;;;18.53;100.00;95787.16;10522026;28;1991;-76
2023/08/18 01:36:18;;;;;;;;;;;;;;;18.37;100.00;95778.69;10499082;28;1980;-74
2023/08/18 01:41:22;;;;;;;;;;;;;;;18.45;100.00;95772.44;10506960;28;4575;-75
2023/08/18 01:46:31;;;;;;;;;;;;;;;18.32;100.00;95771.50;10521754;28;2277;-76
2023/08/18 01:51:35;;;;;;;;;;;;;;;18.33;100.00;95759.50;10518795;28;1980;-75
2023/08/18 01:56:41;;;;;;;;;;;;;;;18.46;100.00;95748.75;10516635;28;1925;-75
2023/08/18 02:01:45;;;;;;;;;;;;;;;18.50;100.00;95738.78;10497913;28;1995;-75
2023/08/18 02:06:56;;;;;;;;;;;;;;;18.38;100.00;95734.00;10509022;28;1912;-75
2023/08/18 02:12:02;;;;;;;;;;;;;;;18.47;100.00;95725.84;10537684;27;2023;-75
2023/08/18 02:17:10;;;;;;;;;;;;;;;18.44;100.00;95721.03;10558715;27;2290;-75
2023/08/18 02:22:17;;;;;;;;;;;;;;;18.28;100.00;95727.00;10548916;27;1915;-75
2023/08/18 02:27:21;;;;;;;;;;;;;;;18.28;100.00;95732.44;10565559;27;1962;-75
2023/08/18 02:32:29;;;;;;;;;;;;;;;18.02;100.00;95732.50;10550712;27;1984;-75
2023/08/18 02:37:36;;;;;;;;;;;;;;;18.05;100.00;95740.00;10535266;27;2054;-75
2023/08/18 02:42:49;;;;;;;;;;;;;;;18.02;100.00;95742.56;10575271;27;1931;-76
2023/08/18 02:47:53;;;;;;;;;;;;;;;17.96;100.00;95743.88;10558907;27;2022;-76
2023/08/18 02:53:03;;;;;;;;;;;;;;;17.90;100.00;95753.31;10545934;27;1961;-75
2023/08/18 02:58:06;;;;;;;;;;;;;;;18.02;100.00;95748.03;10555780;28;1970;-75
2023/08/18 03:03:13;;;;;;;;;;;;;;;18.09;100.00;95742.88;10562490;27;1984;-76
2023/08/18 03:08:21;;;;;;;;;;;;;;;17.88;100.00;95755.53;10547390;27;1978;-76
2023/08/18 03:13:28;;;;;;;;;;;;;;;17.64;100.00;95762.22;10551091;27;2437;-75
2023/08/18 03:18:33;;;;;;;;;;;;;;;17.37;100.00;95776.06;10551562;27;2031;-76
2023/08/18 03:23:37;;;;;;;;;;;;;;;17.26;100.00;95775.59;10559502;27;2237;-76
2023/08/18 03:28:43;;;;;;;;;;;;;;;17.17;100.00;95772.81;10555570;27;1930;-75
2023/08/18 03:33:47;;;;;;;;;;;;;;;17.00;100.00;95778.22;10558553;28;1923;-76
2023/08/18 03:38:54;;;;;;;;;;;;;;;17.18;100.00;95779.88;10560070;28;2013;-76
2023/08/18 03:43:58;;;;;;;;;;;;;;;17.49;100.00;95768.09;10567846;28;4588;-75
2023/08/18 03:49:05;;;;;;;;;;;;;;;17.20;100.00;95779.56;10540326;28;2167;-75
2023/08/18 03:54:14;;;;;;;;;;;;;;;17.09;100.00;95786.38;10561742;28;2265;-76
2023/08/18 03:59:17;;;;;;;;;;;;;;;17.09;100.00;95792.63;10561973;28;2067;-75
2023/08/18 04:04:26;;;;;;;;;;;;;;;16.98;100.00;95813.00;10554254;28;2040;-76
2023/08/18 04:09:32;;;;;;;;;;;;;;;17.02;100.00;95803.13;10580593;27;2177;-76
2023/08/18 04:14:36;;;;;;;;;;;;;;;17.09;100.00;95819.78;10567728;27;2243;-76
2023/08/18 04:19:40;;;;;;;;;;;;;;;17.27;100.00;95810.56;10547108;27;1959;-76
2023/08/18 04:24:46;;;;;;;;;;;;;;;17.46;100.00;95809.50;10563285;27;2033;-75
2023/08/18 04:29:57;;;;;;;;;;;;;;;17.60;100.00;95807.44;10564243;27;2009;-76
2023/08/18 04:35:05;;;;;;;;;;;;;;;17.68;100.00;95811.28;10562505;27;1980;-76
2023/08/18 04:40:14;;;;;;;;;;;;;;;17.86;100.00;95801.28;10564305;27;1994;-76
2023/08/18 04:45:19;;;;;;;;;;;;;;;18.02;100.00;95816.00;10542545;27;4509;-75
2023/08/18 04:50:28;;;;;;;;;;;;;;;18.04;100.00;95811.84;10566967;27;2265;-75
2023/08/18 04:55:34;;;;;;;;;;;;;;;18.33;100.00;95807.69;10562188;27;1978;-75
2023/08/18 05:00:39;;;;;;;;;;;;;;;18.43;100.00;95809.25;10561557;27;2057;-76
2023/08/18 05:05:44;;;;;;;;;;;;;;;18.40;100.00;95813.44;10565205;27;2209;-75
2023/08/18 05:10:50;;;;;;;;;;;;;;;18.42;100.00;95811.19;10564980;27;1958;-75
2023/08/18 05:15:54;;;;;;;;;;;;;;;18.24;100.00;95828.63;10568206;27;2249;-75
2023/08/18 05:21:01;;;;;;;;;;;;;;;18.28;100.00;95835.84;10554207;27;1899;-75
2023/08/18 05:26:07;;;;;;;;;;;;;;;18.43;100.00;95831.81;10566529;28;2042;-75
2023/08/18 05:31:10;;;;;;;;;;;;;;;18.73;100.00;95821.88;10563637;27;1963;-75
2023/08/18 05:36:14;;;;;;;;;;;;;;;18.40;100.00;95829.75;10561870;27;1988;-75
2023/08/18 05:41:26;;;;;;;;;;;;;;;18.45;100.00;95824.16;10570634;27;4484;-75
2023/08/18 05:46:37;;;;;;;;;;;;;;;18.51;100.00;95819.31;10563507;27;2072;-76
2023/08/18 05:51:44;;;;;;;;;;;;;;;18.76;100.00;95823.94;10543144;27;1962;-77
2023/08/18 05:56:50;;;;;;;;;;;;;;;19.03;100.00;95824.69;10561401;27;1905;-77
2023/08/18 06:01:56;;;;;;;;;;;;;;;19.15;100.00;95820.16;10544018;27;2373;-75
2023/08/18 06:07:02;;;;;;;;;;;;;;;19.32;100.00;95811.06;10556355;27;1805;-78
2023/08/18 06:12:06;;;;;;;;;;;;;;;19.53;100.00;95821.22;10565358;27;2114;-76
2023/08/18 06:17:14;;;;;;;;;;;;;;;19.72;100.00;95818.88;10540838;27;1992;-76
2023/08/18 06:22:20;;;;;;;;;;;;;;;19.70;100.00;95827.41;10556793;27;2355;-75
2023/08/18 06:27:33;;;;;;;;;;;;;;;19.71;100.00;95826.28;10538908;27;2198;-74
2023/08/18 06:32:40;;;;;;;;;;;;;;;19.85;100.00;95823.31;10560693;27;1923;-76
2023/08/18 06:37:43;;;;;;;;;;;;;;;19.69;100.00;95822.28;10555118;27;2012;-76
2023/08/18 06:42:48;;;;;;;;;;;;;;;20.04;100.00;95813.84;10554260;27;4689;-74
2023/08/18 06:47:53;;;;;;;;;;;;;;;20.18;100.00;95817.13;10552268;27;1960;-74
2023/08/18 06:53:01;;;;;;;;;;;;;;;20.77;100.00;95822.38;10557723;27;2182;-74
2023/08/18 06:58:09;;;;;;;;;;;;;;;21.30;100.00;95823.41;10557793;28;2517;-75
2023/08/18 07:03:22;;;;;;;;;;;;;;;21.74;100.00;95815.41;10563403;27;2183;-74
2023/08/18 07:08:36;;;;;;;;;;;;;;;22.01;100.00;95822.91;10555030;27;1896;-76
2023/08/18 07:13:48;;;;;;;;;;;;;;;21.65;100.00;95825.69;10543312;27;1935;-75
2023/08/18 07:18:53;;;;;;;;;;;;;;;21.86;100.00;95827.16;10559401;27;1992;-75
2023/08/18 07:24:00;;;;;;;;;;;;;;;22.73;100.00;95816.75;10552686;27;1962;-76
2023/08/18 07:29:08;;;;;;;;;;;;;;;22.75;100.00;95817.97;10547788;28;2189;-74
2023/08/18 07:34:12;;;;;;;;;;;;;;;23.22;100.00;95820.00;10533252;28;1906;-74
2023/08/18 07:39:18;;;;;;;;;;;;;;;23.49;100.00;95818.34;10552798;28;1958;-74
2023/08/18 07:44:27;;;;;;;;;;;;;;;23.93;100.00;95818.19;10552207;28;4580;-75
2023/08/18 07:49:45;;;;;;;;;;;;;;;24.14;100.00;95831.59;10544919;28;1947;-74
2023/08/18 07:54:55;;;;;;;;;;;;;;;23.53;100.00;95834.88;10555846;28;1971;-74
2023/08/18 08:00:05;;;;;;;;;;;;;;;23.14;100.00;95830.00;10555965;28;1910;-74
2023/08/18 08:05:10;;;;;;;;;;;;;;;23.22;100.00;95832.91;10535614;28;2336;-77
2023/08/18 08:10:16;;;;;;;;;;;;;;;22.93;100.00;95830.25;10552392;28;2026;-74
2023/08/18 08:15:19;;;;;;;;;;;;;;;23.54;100.00;95831.78;10566840;27;2051;-75
2023/08/18 08:20:26;;;;;;;;;;;;;;;23.86;100.00;95826.28;10556227;28;1978;-75
2023/08/18 08:25:41;;;;;;;;;;;;;;;24.22;100.00;95823.13;10570228;27;2093;-75
2023/08/18 08:30:57;;;;;;;;;;;;;;;24.07;100.00;95825.94;10557291;28;1947;-75
2023/08/18 08:36:10;;;;;;;;;;;;;;;24.11;100.00;95827.63;10556545;28;1918;-75
2023/08/18 08:41:19;;;;;;;;;;;;;;;24.05;100.00;95823.56;10559338;28;4649;-75
2023/08/18 08:46:29;;;;;;;;;;;;;;;24.24;100.00;95825.56;10552505;28;2021;-75
2023/08/18 08:51:48;;;;;;;;;;;;;;;24.61;100.00;95825.91;10556721;27;2417;-75
2023/08/18 08:56:56;;;;;;;;;;;;;;;24.17;100.00;95814.38;10565290;27;1924;-76
2023/08/18 09:02:06;;;;;;;;;;;;;;;24.73;100.00;95825.78;10537758;27;2105;-73
2023/08/18 09:07:25;;;;;;;;;;;;;;;25.08;100.00;95822.13;10560602;27;1988;-77
2023/08/18 09:12:32;;;;;;;;;;;;;;;25.20;100.00;95827.47;10561359;27;1961;-77
2023/08/18 09:23:03;;;;;;;;;;;;;;;25.44;100.00;95815.25;10558071;27;2059;-75
2023/08/18 09:28:14;;;;;;;;;;;;;;;25.22;100.00;95808.63;10560209;27;1912;-75
2023/08/18 09:33:25;;;;;;;;;;;;;;;25.69;100.00;95815.66;10556088;27;1921;-77
2023/08/18 09:38:36;;;;;;;;;;;;;;;26.43;100.00;95817.16;10557963;27;1898;-77
2023/08/18 09:43:43;;;;;;;;;;;;;;;26.00;100.00;95817.34;10550410;27;4725;-76
2023/08/18 09:48:53;;;;;;;;;;;;;;;26.26;100.00;95811.00;10539855;27;2258;-76
2023/08/18 09:53:57;;;;;;;;;;;;;;;25.95;100.00;95805.84;10570915;27;1985;-76
2023/08/18 09:59:05;;;;;;;;;;;;;;;26.15;100.00;95807.31;10534909;28;1944;-77
2023/08/18 10:04:13;;;;;;;;;;;;;;;26.38;100.00;95788.72;10533285;27;2019;-77
2023/08/18 10:09:18;;;;;;;;;;;;;;;26.48;100.00;95798.31;10558035;27;2003;-76
2023/08/18 10:14:28;;;;;;;;;;;;;;;26.45;100.00;95801.03;10537170;27;2006;-73
2023/08/18 10:19:55;;;;;;;;;;;;;;;26.98;100.00;95801.63;10561516;27;1876;-75
2023/08/18 10:24:58;;;;;;;;;;;;;;;26.43;100.00;95804.16;10542373;27;1967;-75
2023/08/18 10:30:02;;;;;;;;;;;;;;;26.58;100.00;95805.13;10560825;27;2094;-74
2023/08/18 10:35:08;;;;;;;;;;;;;;;26.48;100.00;95803.84;10558654;27;1925;-75
2023/08/18 10:40:12;;;;;;;;;;;;;;;26.95;100.00;95794.09;10561061;27;1935;-75
2023/08/18 10:45:23;;;;;;;;;;;;;;;26.78;100.00;95783.66;10562341;27;4600;-75
2023/08/18 10:50:26;;;;;;;;;;;;;;;27.08;100.00;95778.09;10579430;27;2018;-74
2023/08/18 10:55:31;;;;;;;;;;;;;;;27.00;100.00;95781.94;10559087;27;1975;-75
2023/08/18 11:00:39;;;;;;;;;;;;;;;26.99;97.57;95785.88;10524747;28;1931;-73
2023/08/18 11:05:44;;;;;;;;;;;;;;;27.04;98.46;95767.00;10552434;27;1940;-73
2023/08/18 11:10:48;;;;;;;;;;;;;;;27.41;93.13;95755.91;10538551;27;1912;-73
2023/08/18 11:15:52;;;;;;;;;;;;;;;27.71;87.68;95752.22;10534206;28;2229;-74
2023/08/18 11:20:57;;;;;;;;;;;;;;;27.68;89.25;95758.47;10555837;27;2141;-74
2023/08/18 11:26:04;;;;;;;;;;;;;;;27.53;90.98;95749.28;10556327;27;1951;-73
2023/08/18 11:31:08;;;;;;;;;;;;;;;27.52;89.10;95744.94;10558742;28;1903;-74
2023/08/18 11:36:15;;;;;;;;;;;;;;;27.13;87.84;95748.19;10545578;28;1922;-74
2023/08/18 11:41:19;;;;;;;;;;;;;;;27.35;89.95;95748.34;10550315;28;4523;-74
2023/08/18 11:46:22;;;;;;;;;;;;;;;27.66;89.48;95747.78;10561827;28;1978;-74
2023/08/18 11:51:29;;;;;;;;;;;;;;;27.34;88.95;95744.81;10553292;28;1982;-75
2023/08/18 11:56:32;;;;;;;;;;;;;;;27.48;87.33;95744.94;10556117;28;1973;-74
2023/08/18 12:01:38;;;;;;;;;;;;;;;27.75;87.28;95733.69;10557713;28;1911;-75
2023/08/18 12:06:51;;;;;;;;;;;;;;;27.67;93.28;95737.53;10550713;28;2186;-76
2023/08/18 12:12:04;;;;;;;;;;;;;;;27.43;94.79;95741.75;10555424;28;1969;-76
2023/08/18 12:17:09;;;;;;;;;;;;;;;28.04;89.38;95734.63;10535032;28;2210;-75
2023/08/18 12:22:16;;;;;;;;;;;;;;;28.34;88.79;95733.59;10558306;28;1828;-75
2023/08/18 12:27:29;;;;;;;;;;;;;;;28.27;87.67;95721.31;10542400;27;1957;-74
2023/08/18 12:32:35;;;;;;;;;;;;;;;28.48;84.49;95715.09;10559666;27;1957;-74
2023/08/18 12:37:42;;;;;;;;;;;;;;;28.59;87.93;95722.63;10547733;27;2310;-73
2023/08/18 12:42:48;;;;;;;;;;;;;;;28.86;83.52;95723.84;10539296;27;4704;-74
2023/08/18 12:48:04;;;;;;;;;;;;;;;28.60;86.93;95722.22;10544681;27;1909;-75
2023/08/18 12:53:09;;;;;;;;;;;;;;;28.91;86.07;95708.84;10559370;27;1923;-75
2023/08/18 12:58:12;;;;;;;;;;;;;;;29.23;77.08;95708.88;10541823;27;1976;-75
2023/08/18 13:03:17;;;;;;;;;;;;;;;29.23;72.84;95717.97;10556194;27;1978;-72
2023/08/18 13:08:20;;;;;;;;;;;;;;;29.20;72.27;95712.44;10538728;27;2074;-74
2023/08/18 13:13:23;;;;;;;;;;;;;;;28.99;76.59;95719.56;10559169;27;1852;-75
2023/08/18 13:18:30;;;;;;;;;;;;;;;28.92;81.12;95705.72;10543190;27;1963;-76
2023/08/18 13:23:41;;;;;;;;;;;;;;;29.10;81.89;95714.03;10547123;27;1809;-76
2023/08/18 13:28:45;;;;;;;;;;;;;;;29.15;82.71;95707.31;10538839;28;1852;-75
2023/08/18 13:33:50;;;;;;;;;;;;;;;28.96;79.35;95705.72;10548437;27;2303;-75
2023/08/18 13:39:06;;;;;;;;;;;;;;;28.98;77.14;95698.59;10550586;27;1914;-78
2023/08/18 13:44:14;;;;;;;;;;;;;;;28.70;79.61;95695.78;10563271;27;1971;-76
2023/08/18 13:49:21;;;;;;;;;;;;;;;28.84;81.67;95701.34;10550171;27;1913;-76
2023/08/18 13:59:47;;;;;;;;;;;;;;;28.79;85.62;95685.13;10538833;28;1917;-76
2023/08/18 14:04:50;;;;;;;;;;;;;;;28.98;85.43;95692.28;10553986;27;1864;-76
2023/08/18 14:09:53;;;;;;;;;;;;;;;28.83;85.19;95683.16;10560112;27;1812;-77
2023/08/18 14:15:00;;;;;;;;;;;;;;;28.83;86.75;95685.94;10544279;27;1910;-75
2023/08/18 14:20:13;;;;;;;;;;;;;;;28.94;87.18;95685.94;10567247;27;1821;-78
2023/08/18 14:25:24;;;;;;;;;;;;;;;28.97;86.55;95691.50;10558937;27;1797;-74
2023/08/18 14:30:28;;;;;;;;;;;;;;;28.98;87.08;95681.22;10532512;27;2337;-75
2023/08/18 14:35:31;;;;;;;;;;;;;;;29.12;84.98;95678.44;10554370;27;1993;-75
2023/08/18 14:40:45;;;;;;;;;;;;;;;29.46;81.38;95689.09;10564399;27;4508;-77
2023/08/18 14:45:50;;;;;;;;;;;;;;;29.14;82.38;95683.56;10564552;27;1931;-77
2023/08/18 14:51:00;;;;;;;;;;;;;;;28.86;83.36;95668.53;10556052;28;1888;-76
2023/08/18 14:56:08;;;;;;;;;;;;;;;29.07;81.28;95674.13;10556872;27;1977;-78
2023/08/18 15:01:13;;;;;;;;;;;;;;;29.00;81.16;95667.75;10540036;27;1976;-78
2023/08/18 15:06:22;;;;;;;;;;;;;;;28.84;83.46;95661.81;10565581;27;1721;-78
2023/08/18 15:11:30;;;;;;;;;;;;;;;29.15;78.62;95657.50;10562239;27;1928;-78
2023/08/18 15:16:34;;;;;;;;;;;;;;;29.15;80.19;95660.28;10563728;27;1918;-77
2023/08/18 15:21:40;;;;;;;;;;;;;;;28.83;80.81;95663.00;10558165;27;1833;-76
2023/08/18 15:26:42;;;;;;;;;;;;;;;29.12;81.19;95652.75;10557245;27;1925;-77
2023/08/18 15:31:56;;;;;;;;;;;;;;;29.12;82.40;95652.75;10558368;27;1916;-77
2023/08/18 15:37:03;;;;;;;;;;;;;;;29.02;82.18;95649.59;10557150;28;1931;-77
2023/08/18 15:42:12;;;;;;;;;;;;;;;28.90;82.30;95646.41;10560265;28;4756;-77
2023/08/18 15:47:17;;;;;;;;;;;;;;;28.67;85.51;95655.06;10547917;28;1832;-76
2023/08/18 15:52:31;;;;;;;;;;;;;;;28.45;87.30;95637.69;10540049;28;1945;-76
2023/08/18 15:57:36;;;;;;;;;;;;;;;28.31;88.69;95648.66;10546257;28;1910;-75
2023/08/18 16:02:50;;;;;;;;;;;;;;;28.33;89.09;95635.28;10565766;27;1845;-76
2023/08/18 16:07:54;;;;;;;;;;;;;;;28.21;91.13;95651.00;10572719;27;1801;-75
2023/08/18 16:12:57;;;;;;;;;;;;;;;28.21;92.20;95641.94;10566299;28;1793;-75
2023/08/18 16:18:02;;;;;;;;;;;;;;;27.92;93.76;95633.53;10557983;27;1917;-76
2023/08/18 16:23:09;;;;;;;;;;;;;;;27.79;96.17;95639.81;10564040;27;2572;-75
2023/08/18 16:28:13;;;;;;;;;;;;;;;27.77;97.18;95642.97;10574203;27;1820;-74
2023/08/18 16:33:18;;;;;;;;;;;;;;;27.68;97.46;95640.56;10564930;27;1916;-76
2023/08/18 16:38:27;;;;;;;;;;;;;;;27.58;99.09;95646.78;10566271;27;1978;-77
2023/08/18 16:43:32;;;;;;;;;;;;;;;27.55;99.50;95632.94;10554922;27;4705;-75
2023/08/18 16:48:37;;;;;;;;;;;;;;;27.50;99.93;95639.66;10564369;27;1891;-76
2023/08/18 16:53:41;;;;;;;;;;;;;;;27.37;100.00;95639.19;10556516;27;2138;-75
2023/08/18 16:58:55;;;;;;;;;;;;;;;27.27;100.00;95639.09;10543848;27;1910;-75
2023/08/18 17:03:59;;;;;;;;;;;;;;;27.20;100.00;95643.41;10559012;27;1845;-75
2023/08/18 17:09:05;;;;;;;;;;;;;;;27.10;100.00;95659.88;10564153;27;1635;-76
2023/08/18 17:14:12;;;;;;;;;;;;;;;27.01;100.00;95657.41;10561445;27;1834;-76
2023/08/18 17:19:18;;;;;;;;;;;;;;;26.91;100.00;95663.63;10563755;27;2387;-75
2023/08/18 17:24:25;;;;;;;;;;;;;;;26.78;100.00;95663.13;10559986;28;1864;-77
2023/08/18 17:29:33;;;;;;;;;;;;;;;26.70;100.00;95664.25;10560944;27;1831;-77
2023/08/18 17:34:44;;;;;;;;;;;;;;;26.56;100.00;95661.38;10555491;27;2038;-77
2023/08/18 17:39:51;;;;;;;;;;;;;;;26.48;100.00;95657.75;10556815;27;1969;-77
2023/08/18 17:45:22;;;;;;;;;;;;;;;26.30;100.00;95668.56;10558539;27;1902;-77
2023/08/18 17:50:32;;;;;;;;;;;;;;;26.22;100.00;95671.63;10536582;27;1847;-76
2023/08/18 17:55:42;;;;;;;;;;;;;;;26.02;100.00;95668.22;10552429;27;1804;-76
2023/08/18 18:00:50;;;;;;;;;;;;;;;25.95;100.00;95673.66;10562489;27;1965;-77
2023/08/18 18:05:53;;;;;;;;;;;;;;;25.80;100.00;95661.69;10555413;27;1888;-77
2023/08/18 18:10:59;;;;;;;;;;;;;;;25.58;100.00;95666.09;10545208;27;1869;-76
2023/08/18 18:16:10;;;;;;;;;;;;;;;25.43;100.00;95669.81;10528422;27;2282;-76
2023/08/18 18:21:25;;;;;;;;;;;;;;;25.26;100.00;95677.44;10562021;27;1820;-78
2023/08/18 18:26:33;;;;;;;;;;;;;;;25.08;100.00;95684.63;10536047;27;1831;-77
2023/08/18 18:31:51;;;;;;;;;;;;;;;24.86;100.00;95690.91;10518213;28;1863;-76
2023/08/18 18:36:56;;;;;;;;;;;;;;;24.78;100.00;95696.28;10513759;28;1910;-76
2023/08/18 18:42:12;;;;;;;;;;;;;;;24.60;100.00;95703.41;10517293;28;4537;-74
2023/08/18 18:47:22;;;;;;;;;;;;;;;24.36;100.00;95707.28;10518019;28;1828;-76
2023/08/18 18:52:29;;;;;;;;;;;;;;;24.33;100.00;95710.75;10510666;28;1940;-77
2023/08/18 18:57:34;;;;;;;;;;;;;;;24.17;100.00;95716.31;10501407;28;1941;-77
2023/08/18 19:02:42;;;;;;;;;;;;;;;24.02;100.00;95719.16;10510808;28;1852;-77
2023/08/18 19:07:47;;;;;;;;;;;;;;;23.93;100.00;95722.13;10510851;28;2334;-76
2023/08/18 19:13:00;;;;;;;;;;;;;;;23.79;100.00;95728.06;10511706;28;1886;-77
2023/08/18 19:18:07;;;;;;;;;;;;;;;23.71;100.00;95727.13;10508203;28;1910;-78
2023/08/18 19:23:18;;;;;;;;;;;;;;;23.60;100.00;95728.84;10520131;28;1912;-77
2023/08/18 19:28:34;;;;;;;;;;;;;;;23.40;100.00;95722.50;10529316;28;1907;-77
2023/08/18 19:33:39;;;;;;;;;;;;;;;23.41;100.00;95720.53;10573849;27;1969;-77
2023/08/18 19:38:44;;;;;;;;;;;;;;;23.29;100.00;95716.00;10533235;28;1910;-75
2023/08/18 19:43:48;;;;;;;;;;;;;;;23.26;100.00;95722.16;10522390;28;4571;-68
2023/08/18 19:48:52;;;;;;;;;;;;;;;23.25;100.00;95719.78;10557094;28;1944;-68
2023/08/18 19:53:56;;;;;;;;;;;;;;;23.09;100.00;95714.31;10551302;28;1925;-70
2023/08/18 19:59:00;;;;;;;;;;;;;;;23.04;100.00;95720.09;10533093;28;1902;-70
2023/08/18 20:04:03;;;;;;;;;;;;;;;22.95;100.00;95725.72;10557712;28;2403;-69
2023/08/18 20:09:06;;;;;;;;;;;;;;;22.78;100.00;95726.06;10533212;28;1846;-67
2023/08/18 20:14:10;;;;;;;;;;;;;;;22.66;100.00;95725.00;10548966;28;1780;-67
2023/08/18 20:19:14;;;;;;;;;;;;;;;22.60;100.00;95722.88;10554763;28;1986;-68
2023/08/18 20:24:18;;;;;;;;;;;;;;;22.44;100.00;95731.03;10552514;28;1839;-68
2023/08/18 20:29:21;;;;;;;;;;;;;;;22.34;100.00;95735.09;10541188;28;1894;-67
2023/08/18 20:34:25;;;;;;;;;;;;;;;22.24;100.00;95738.34;10536315;28;2040;-67
2023/08/18 20:39:29;;;;;;;;;;;;;;;22.20;100.00;95736.63;10531461;28;1987;-67
2023/08/18 20:44:33;;;;;;;;;;;;;;;22.49;100.00;95736.28;10545234;28;4442;-68
2023/08/18 20:49:37;;;;;;;;;;;;;;;22.26;100.00;95735.25;10559777;27;1817;-69
2023/08/18 20:54:40;;;;;;;;;;;;;;;22.27;100.00;95747.81;10572077;27;1899;-67
2023/08/18 20:59:46;;;;;;;;;;;;;;;22.19;100.00;95749.53;10548778;28;2119;-67
2023/08/18 21:04:50;;;;;;;;;;;;;;;22.45;100.00;95743.59;10551837;27;2640;-67
2023/08/18 21:09:53;;;;;;;;;;;;;;;22.23;100.00;95746.91;10564741;27;1919;-68
2023/08/18 21:14:56;;;;;;;;;;;;;;;22.07;100.00;95753.06;10565938;27;1883;-66
2023/08/18 21:20:00;;;;;;;;;;;;;;;21.91;100.00;95748.69;10564764;27;1918;-67
2023/08/18 21:25:24;;;;;;;;;;;;;;;22.25;100.00;95758.28;10549435;27;1902;-68
2023/08/18 21:30:27;;;;;;;;;;;;;;;22.20;100.00;95755.81;10566003;27;1821;-68
2023/08/18 21:35:31;;;;;;;;;;;;;;;22.19;100.00;95746.00;10562028;27;1938;-72
2023/08/18 21:40:36;;;;;;;;;;;;;;;22.12;100.00;95744.66;10560769;27;1896;-71
2023/08/18 21:45:40;;;;;;;;;;;;;;;22.07;100.00;95744.88;10567223;27;2001;-71
2023/08/18 21:50:45;;;;;;;;;;;;;;;21.95;100.00;95755.88;10562252;27;1910;-70
2023/08/18 21:55:48;;;;;;;;;;;;;;;21.76;100.00;95758.44;10539879;27;1881;-71
2023/08/18 22:00:51;;;;;;;;;;;;;;;21.58;100.00;95753.22;10566663;27;2144;-69
2023/08/18 22:05:55;;;;;;;;;;;;;;;21.76;100.00;95747.50;10544235;28;1881;-72
2023/08/18 22:10:58;;;;;;;;;;;;;;;21.69;100.00;95750.78;10542225;27;2000;-72
2023/08/18 22:16:03;;;;;;;;;;;;;;;21.54;100.00;95743.31;10581981;27;1899;-72
2023/08/18 22:21:07;;;;;;;;;;;;;;;21.40;100.00;95740.94;10558546;27;1972;-72
2023/08/18 22:26:10;;;;;;;;;;;;;;;21.40;100.00;95751.88;10561421;27;1977;-69
2023/08/18 22:31:14;;;;;;;;;;;;;;;21.14;100.00;95745.94;10563106;27;1860;-69
2023/08/18 22:36:19;;;;;;;;;;;;;;;21.18;100.00;95746.81;10540313;27;1895;-72
2023/08/18 22:41:22;;;;;;;;;;;;;;;21.17;100.00;95747.97;10558637;27;4588;-70
2023/08/18 22:46:27;;;;;;;;;;;;;;;21.31;100.00;95746.53;10560186;27;1967;-69
2023/08/18 22:51:30;;;;;;;;;;;;;;;21.36;100.00;95752.91;10557772;27;2065;-69
2023/08/18 22:56:35;;;;;;;;;;;;;;;21.44;100.00;95747.31;10560302;28;2297;-69
2023/08/18 23:01:39;;;;;;;;;;;;;;;21.11;100.00;95757.53;10566999;27;1967;-68
2023/08/18 23:06:42;;;;;;;;;;;;;;;20.85;100.00;95758.66;10528218;27;1991;-69
2023/08/18 23:11:45;;;;;;;;;;;;;;;20.87;100.00;95753.66;10560499;27;1876;-69
2023/08/18 23:16:48;;;;;;;;;;;;;;;20.85;100.00;95764.13;10557268;27;1980;-69
2023/08/18 23:21:53;;;;;;;;;;;;;;;20.94;100.00;95766.75;10557899;27;1941;-69
2023/08/18 23:26:58;;;;;;;;;;;;;;;20.98;100.00;95760.25;10557412;27;1947;-68
2023/08/18 23:32:02;;;;;;;;;;;;;;;21.09;100.00;95760.63;10561430;27;2087;-69
2023/08/18 23:37:08;;;;;;;;;;;;;;;20.79;100.00;95754.53;10554019;27;1885;-68
2023/08/18 23:42:14;;;;;;;;;;;;;;;20.89;100.00;95751.38;10551225;28;4504;-68
2023/08/18 23:47:17;;;;;;;;;;;;;;;20.41;100.00;95749.31;10551517;28;1907;-68
2023/08/18 23:52:23;;;;;;;;;;;;;;;20.49;100.00;95749.28;10560191;28;2138;-68
2023/08/18 23:57:28;;;;;;;;;;;;;;;20.65;100.00;95754.88;10548162;28;1884;-70
